createdAt,value
2022-11-15T00:01:20.850Z,100479.15
2022-11-15T00:04:11.666Z,100477.88
2022-11-15T00:07:02.478Z,100474.48
2022-11-15T00:09:52.866Z,100467.66
2022-11-15T00:12:43.621Z,100461.80
2022-11-15T00:15:36.207Z,100462.52
2022-11-15T00:18:26.685Z,100459.55
2022-11-15T00:21:18.341Z,100461.25
2022-11-15T00:24:10.120Z,100455.08
2022-11-15T00:27:01.119Z,100445.13
2022-11-15T00:29:51.858Z,100443.69
2022-11-15T00:32:42.330Z,100445.01
2022-11-15T00:35:35.515Z,100440.11
2022-11-15T00:38:26.246Z,100436.21
2022-11-15T00:41:16.878Z,100430.63
2022-11-15T00:44:07.702Z,100425.12
2022-11-15T00:46:58.664Z,100425.55
2022-11-15T00:49:49.593Z,100425.73
2022-11-15T00:52:40.398Z,100424.55
2022-11-15T00:55:31.178Z,100421.92
2022-11-15T00:58:22.136Z,100418.58
2022-11-15T01:01:16.108Z,100410.83
2022-11-15T01:04:07.384Z,100413.17
2022-11-15T01:06:57.664Z,100409.02
2022-11-15T01:09:48.454Z,100411.03
2022-11-15T01:12:39.541Z,100409.64
2022-11-15T01:15:29.962Z,100408.20
2022-11-15T01:18:20.409Z,100404.89
2022-11-15T01:21:16.440Z,100397.30
2022-11-15T01:24:08.198Z,100397.83
2022-11-15T01:26:58.714Z,100395.70
2022-11-15T01:29:49.391Z,100395.17
2022-11-15T01:32:40.109Z,100392.20
2022-11-15T01:35:30.540Z,100390.13
2022-11-15T01:38:21.244Z,100386.20
2022-11-15T01:41:19.403Z,100383.27
2022-11-15T01:44:49.190Z,100372.78
2022-11-15T01:47:42.801Z,100372.55
2022-11-15T01:50:35.157Z,100373.45
2022-11-15T01:53:28.098Z,100362.52
2022-11-15T01:56:22.190Z,100357.27
2022-11-15T01:59:13.967Z,100350.81
2022-11-15T02:02:05.208Z,100350.39
2022-11-15T02:04:56.142Z,100348.41
2022-11-15T02:07:47.358Z,100347.83
2022-11-15T02:10:38.269Z,100346.87
2022-11-15T02:13:29.820Z,100340.16
2022-11-15T02:16:29.935Z,100335.98
2022-11-15T02:19:48.338Z,100333.30
2022-11-15T02:22:53.147Z,100333.27
2022-11-15T02:25:57.596Z,100322.09
2022-11-15T02:29:02.738Z,100316.68
2022-11-15T02:31:59.380Z,100314.25
2022-11-15T02:34:58.530Z,100310.34
2022-11-15T02:37:57.989Z,100313.22
2022-11-15T02:40:55.885Z,100309.30
2022-11-15T02:44:00.351Z,100308.31
2022-11-15T02:47:12.440Z,100299.11
2022-11-15T02:50:09.261Z,100296.99
2022-11-15T02:53:00.224Z,100291.27
2022-11-15T02:55:55.362Z,100293.55
2022-11-15T02:59:03.212Z,100287.58
2022-11-15T03:02:08.272Z,100285.93
2022-11-15T03:05:04.838Z,100286.31
2022-11-15T03:08:02.990Z,100284.59
2022-11-15T03:11:06.185Z,100278.40
2022-11-15T03:14:01.784Z,100268.77
2022-11-15T03:17:01.211Z,100270.30
2022-11-15T03:19:55.332Z,100274.98
2022-11-15T03:22:48.970Z,100270.79
2022-11-15T03:25:43.482Z,100270.55
2022-11-15T03:28:38.613Z,100265.47
2022-11-15T03:31:51.342Z,100260.17
2022-11-15T03:34:47.720Z,100250.20
2022-11-15T03:37:48.020Z,100246.91
2022-11-15T03:40:41.883Z,100238.58
2022-11-15T03:43:42.254Z,100234.31
2022-11-15T03:46:39.136Z,100230.79
2022-11-15T03:49:33.823Z,100229.94
2022-11-15T03:52:25.933Z,100224.70
2022-11-15T03:55:19.300Z,100218.70
2022-11-15T03:58:10.746Z,100216.33
2022-11-15T04:01:01.869Z,100217.70
2022-11-15T04:03:52.509Z,100211.29
2022-11-15T04:06:43.082Z,100209.25
2022-11-15T04:09:34.018Z,100210.70
2022-11-15T04:12:31.933Z,100217.05
2022-11-15T04:15:25.560Z,100213.92
2022-11-15T04:18:16.339Z,100215.17
2022-11-15T04:21:25.064Z,100213.50
2022-11-15T04:24:15.411Z,100215.51
2022-11-15T04:27:06.214Z,100208.77
2022-11-15T04:29:59.349Z,100210.17
2022-11-15T04:32:49.798Z,100211.70
2022-11-15T04:35:40.375Z,100213.54
2022-11-15T04:38:31.278Z,100218.81
2022-11-15T04:41:22.059Z,100222.17
2022-11-15T04:44:12.864Z,100215.50
2022-11-15T04:47:04.436Z,100216.98
2022-11-15T04:49:55.216Z,100211.34
2022-11-15T04:52:52.112Z,100220.69
2022-11-15T04:55:46.171Z,100209.54
2022-11-15T04:58:37.590Z,100205.44
2022-11-15T05:01:28.389Z,100208.57
2022-11-15T05:04:22.563Z,100210.64
2022-11-15T05:07:13.678Z,100201.45
2022-11-15T05:10:04.601Z,100197.04
2022-11-15T05:12:55.379Z,100194.58
2022-11-15T05:15:46.134Z,100194.70
2022-11-15T05:18:36.605Z,100182.86
2022-11-15T05:21:27.359Z,100175.13
2022-11-15T05:24:17.885Z,100168.48
2022-11-15T05:27:08.381Z,100167.02
2022-11-15T05:29:59.315Z,100160.34
2022-11-15T05:32:50.621Z,100158.54
2022-11-15T05:35:46.251Z,100153.56
2022-11-15T05:38:35.503Z,100151.33
2022-11-15T05:41:33.390Z,100151.98
2022-11-15T05:44:27.483Z,100149.86
2022-11-15T05:47:22.423Z,100146.33
2022-11-15T05:50:16.582Z,100149.08
2022-11-15T05:53:08.028Z,100155.19
2022-11-15T05:55:59.346Z,100164.89
2022-11-15T05:58:50.279Z,100166.00
2022-11-15T06:01:42.208Z,100167.37
2022-11-15T06:04:32.965Z,100170.96
2022-11-15T06:07:23.467Z,100163.75
2022-11-15T06:10:14.935Z,100167.47
2022-11-15T06:13:07.249Z,100170.05
2022-11-15T06:16:00.384Z,100182.52
2022-11-15T06:18:51.061Z,100183.51
2022-11-15T06:21:41.559Z,100186.96
2022-11-15T06:24:32.390Z,100189.98
2022-11-15T06:27:23.553Z,100189.57
2022-11-15T06:30:15.400Z,100195.36
2022-11-15T06:33:07.648Z,100194.98
2022-11-15T06:36:01.653Z,100196.77
2022-11-15T06:38:52.335Z,100202.46
2022-11-15T06:41:42.861Z,100199.88
2022-11-15T06:44:33.429Z,100203.40
2022-11-15T06:47:24.028Z,100208.23
2022-11-15T06:50:15.271Z,100205.85
2022-11-15T06:53:06.870Z,100205.30
2022-11-15T06:56:02.872Z,100207.11
2022-11-15T06:58:53.449Z,100204.66
2022-11-15T07:01:44.700Z,100208.79
2022-11-15T07:04:37.231Z,100206.71
2022-11-15T07:07:27.938Z,100202.40
2022-11-15T07:10:19.320Z,100198.52
2022-11-15T07:13:09.676Z,100196.08
2022-11-15T07:16:00.042Z,100192.80
2022-11-15T07:18:50.725Z,100192.89
2022-11-15T07:21:41.399Z,100189.96
2022-11-15T07:24:31.845Z,100184.77
2022-11-15T07:27:22.548Z,100183.34
2022-11-15T07:30:15.854Z,100177.10
2022-11-15T07:33:06.566Z,100180.35
2022-11-15T07:36:03.774Z,100178.86
2022-11-15T07:38:54.702Z,100175.30
2022-11-15T07:41:45.815Z,100173.02
2022-11-15T07:44:36.697Z,100173.98
2022-11-15T07:47:27.857Z,100172.61
2022-11-15T07:50:18.692Z,100177.58
2022-11-15T07:53:10.242Z,100174.44
2022-11-15T07:56:01.021Z,100171.91
2022-11-15T07:58:52.259Z,100170.05
2022-11-15T08:01:42.757Z,100166.94
2022-11-15T08:04:33.783Z,100164.14
2022-11-15T08:07:24.472Z,100162.42
2022-11-15T08:10:17.810Z,100161.49
2022-11-15T08:13:10.248Z,100158.98
2022-11-15T08:16:03.035Z,100156.52
2022-11-15T08:18:54.092Z,100156.30
2022-11-15T08:21:44.926Z,100153.98
2022-11-15T08:24:36.020Z,100152.85
2022-11-15T08:27:26.525Z,100150.73
2022-11-15T08:30:19.452Z,100153.41
2022-11-15T08:33:14.367Z,100150.78
2022-11-15T08:36:05.712Z,100151.01
2022-11-15T08:38:56.720Z,100155.46
2022-11-15T08:41:47.459Z,100153.37
2022-11-15T08:44:38.311Z,100155.38
2022-11-15T08:47:29.517Z,100161.92
2022-11-15T08:50:20.945Z,100162.17
2022-11-15T08:53:12.511Z,100162.86
2022-11-15T08:56:03.495Z,100164.48
2022-11-15T08:58:54.326Z,100158.85
2022-11-15T09:01:45.281Z,100154.17
2022-11-15T09:04:36.550Z,100150.10
2022-11-15T09:07:27.302Z,100145.29
2022-11-15T09:10:19.647Z,100142.65
2022-11-15T09:13:10.630Z,100138.64
2022-11-15T09:16:02.929Z,100134.52
2022-11-15T09:18:54.397Z,100129.44
2022-11-15T09:21:45.426Z,100124.56
2022-11-15T09:24:36.283Z,100131.35
2022-11-15T09:27:31.542Z,100125.09
2022-11-15T09:30:22.284Z,100122.66
2022-11-15T09:33:14.537Z,100118.92
2022-11-15T09:36:07.569Z,100120.77
2022-11-15T09:38:59.374Z,100121.29
2022-11-15T09:42:10.102Z,100121.99
2022-11-15T09:45:20.817Z,100118.52
2022-11-15T09:48:36.283Z,100116.02
2022-11-15T09:51:31.585Z,100120.88
2022-11-15T09:57:16.306Z,100121.70
2022-11-15T10:00:30.760Z,100113.50
2022-11-15T10:03:12.805Z,100106.59
2022-11-15T10:05:48.196Z,100106.05
2022-11-15T10:08:47.016Z,100100.48
2022-11-15T10:11:36.886Z,100098.05
2022-11-15T10:14:17.463Z,100094.48
2022-11-15T10:17:34.534Z,100090.05
2022-11-15T10:20:18.283Z,100083.85
2022-11-15T10:22:52.902Z,100082.67
2022-11-15T10:25:27.253Z,100088.77
2022-11-15T10:28:03.049Z,100083.38
2022-11-15T10:30:37.469Z,100081.53
2022-11-15T10:33:25.947Z,100086.17
2022-11-15T10:36:20.002Z,100081.79
2022-11-15T10:38:58.491Z,100078.80
2022-11-15T10:41:40.824Z,100079.58
2022-11-15T10:44:27.738Z,100076.90
2022-11-15T10:47:22.742Z,100075.66
2022-11-15T10:50:00.621Z,100075.27
2022-11-15T10:52:34.954Z,100072.16
2022-11-15T10:55:23.749Z,100067.20
2022-11-15T10:57:58.091Z,100064.66
2022-11-15T11:00:37.758Z,100058.20
2022-11-15T11:03:29.567Z,100058.54
2022-11-15T11:06:10.790Z,100055.98
2022-11-15T11:08:54.941Z,100048.69
2022-11-15T11:11:27.422Z,100051.80
2022-11-15T11:14:19.286Z,100046.67
2022-11-15T11:16:55.077Z,100050.60
2022-11-15T11:19:53.944Z,100053.32
2022-11-15T11:22:39.953Z,100048.05
2022-11-15T11:25:25.139Z,100044.48
2022-11-15T11:28:11.768Z,100039.23
2022-11-15T11:30:52.540Z,100036.44
2022-11-15T11:33:29.215Z,100032.29
2022-11-15T11:36:12.951Z,100023.92
2022-11-15T11:38:59.077Z,100029.16
2022-11-15T11:41:53.850Z,100025.48
2022-11-15T11:44:35.640Z,100024.16
2022-11-15T11:47:13.260Z,100027.63
2022-11-15T11:49:50.246Z,100026.41
2022-11-15T11:52:28.021Z,100021.77
2022-11-15T11:55:05.991Z,100016.45
2022-11-15T11:57:44.627Z,100011.41
2022-11-15T12:00:25.258Z,100015.38
2022-11-15T12:03:10.502Z,100016.02
2022-11-15T12:05:45.520Z,100016.68
2022-11-15T12:08:26.591Z,100016.15
2022-11-15T12:11:11.718Z,100013.33
2022-11-15T12:13:44.933Z,100011.71
2022-11-15T12:16:22.323Z,100013.52
2022-11-15T12:18:59.127Z,100011.52
2022-11-15T12:21:41.629Z,100012.96
2022-11-15T12:24:20.437Z,100011.64
2022-11-15T12:26:58.056Z,100002.27
2022-11-15T12:29:35.702Z,99999.30
2022-11-15T12:32:26.790Z,99999.06
2022-11-15T12:35:00.623Z,99990.95
2022-11-15T12:37:51.357Z,99988.77
2022-11-15T12:40:25.977Z,99991.04
2022-11-15T12:43:19.164Z,99987.81
2022-11-15T12:45:51.126Z,99985.90
2022-11-15T12:48:51.509Z,99987.81
2022-11-15T12:51:47.974Z,99987.57
2022-11-15T12:55:11.439Z,99988.27
2022-11-15T12:57:45.602Z,99987.96
2022-11-15T13:00:50.053Z,99990.55
2022-11-15T13:03:32.411Z,99989.63
2022-11-15T13:06:33.152Z,99991.23
2022-11-15T13:09:05.219Z,99986.36
2022-11-15T13:11:52.233Z,99987.73
2022-11-15T13:14:56.735Z,99980.73
2022-11-15T13:17:34.942Z,99977.80
2022-11-15T13:20:25.544Z,99974.98
2022-11-15T13:23:05.470Z,99970.80
2022-11-15T13:25:57.146Z,99971.47
2022-11-15T13:28:35.880Z,99972.67
2022-11-15T13:31:26.749Z,99970.08
2022-11-15T13:34:01.752Z,99970.75
2022-11-15T13:36:35.871Z,99967.78
2022-11-15T13:39:16.925Z,99968.19
2022-11-15T13:41:52.419Z,99967.16
2022-11-15T13:44:26.099Z,99965.56
2022-11-15T13:47:14.394Z,99965.42
2022-11-15T13:49:46.666Z,99959.59
2022-11-15T13:52:19.061Z,99961.70
2022-11-15T13:54:58.625Z,99963.48
2022-11-15T13:57:37.994Z,99963.88
2022-11-15T14:00:37.734Z,99968.30
2022-11-15T14:03:18.144Z,99969.38
2022-11-15T14:06:03.777Z,99969.73
2022-11-15T14:08:36.361Z,99966.27
2022-11-15T14:11:18.023Z,99967.64
2022-11-15T14:14:13.183Z,99963.28
2022-11-15T14:16:46.988Z,99953.84
2022-11-15T14:19:39.608Z,99952.17
2022-11-15T14:22:21.581Z,99951.26
2022-11-15T14:28:12.589Z,99948.52
2022-11-15T14:30:48.223Z,99948.17
2022-11-15T14:33:25.279Z,99945.03
2022-11-15T14:35:58.409Z,99939.04
2022-11-15T14:38:30.991Z,99934.39
2022-11-15T14:41:03.131Z,99931.14
2022-11-15T14:43:35.761Z,99931.02
2022-11-15T14:46:08.084Z,99933.75
2022-11-15T14:48:39.940Z,99932.40
2022-11-15T14:51:17.540Z,99936.92
2022-11-15T14:53:49.889Z,99935.02
2022-11-15T14:56:21.799Z,99933.38
2022-11-15T14:58:53.686Z,99932.95
2022-11-15T15:01:28.626Z,99925.28
2022-11-15T15:04:00.753Z,99923.00
2022-11-15T15:06:32.979Z,99924.24
2022-11-15T15:09:06.271Z,99918.64
2022-11-15T15:11:38.747Z,99921.37
2022-11-15T15:14:11.709Z,99926.70
2022-11-15T15:16:43.851Z,99928.34
2022-11-15T15:19:15.894Z,99932.37
2022-11-15T15:21:48.035Z,99933.11
2022-11-15T15:24:20.177Z,99936.15
2022-11-15T15:26:52.245Z,99937.73
2022-11-15T15:29:24.771Z,99934.98
2022-11-15T15:31:56.938Z,99935.36
2022-11-15T15:34:29.003Z,99932.98
2022-11-15T15:37:25.800Z,99930.49
2022-11-15T15:39:58.995Z,99927.73
2022-11-15T15:42:31.830Z,99929.88
2022-11-15T15:45:03.945Z,99930.89
2022-11-15T15:47:36.111Z,99928.50
2022-11-15T15:50:26.636Z,99926.24
2022-11-15T15:53:00.262Z,99924.48
2022-11-15T15:55:33.046Z,99923.92
2022-11-15T15:58:05.237Z,99920.23
2022-11-15T16:00:37.981Z,99919.55
2022-11-15T16:03:10.086Z,99915.15
2022-11-15T16:05:42.334Z,99914.23
2022-11-15T16:08:21.565Z,99909.55
2022-11-15T16:10:54.221Z,99907.42
2022-11-15T16:13:26.413Z,99905.81
2022-11-15T16:15:58.685Z,99908.10
2022-11-15T16:18:31.324Z,99906.36
2022-11-15T16:21:03.865Z,99908.98
2022-11-15T16:23:36.238Z,99901.83
2022-11-15T16:26:20.184Z,99904.29
2022-11-15T16:28:52.557Z,99905.15
2022-11-15T16:31:25.032Z,99904.36
2022-11-15T16:33:57.150Z,99904.81
2022-11-15T16:36:33.131Z,99899.69
2022-11-15T16:39:06.350Z,99904.72
2022-11-15T16:41:38.747Z,99904.61
2022-11-15T16:44:10.967Z,99903.70
2022-11-15T16:46:44.619Z,99907.79
2022-11-15T16:49:17.710Z,99904.56
2022-11-15T16:51:50.928Z,99905.95
2022-11-15T16:54:22.968Z,99903.91
2022-11-15T16:56:55.750Z,99901.09
2022-11-15T16:59:27.944Z,99904.77
2022-11-15T17:02:00.092Z,99904.64
2022-11-15T17:04:34.023Z,99906.77
2022-11-15T17:07:06.999Z,99905.16
2022-11-15T17:09:39.427Z,99908.74
2022-11-15T17:12:12.600Z,99911.33
2022-11-15T17:14:46.135Z,99916.33
2022-11-15T17:17:18.242Z,99917.98
2022-11-15T17:19:50.412Z,99919.45
2022-11-15T17:22:22.707Z,99914.84
2022-11-15T17:24:54.848Z,99913.66
2022-11-15T17:27:26.865Z,99910.23
2022-11-15T17:29:59.083Z,99904.19
2022-11-15T17:32:31.160Z,99901.16
2022-11-15T17:35:03.236Z,99901.66
2022-11-15T17:37:35.359Z,99904.73
2022-11-15T17:40:09.694Z,99904.33
2022-11-15T17:42:43.307Z,99899.80
2022-11-15T17:45:15.749Z,99900.64
2022-11-15T17:47:47.870Z,99904.22
2022-11-15T17:50:20.319Z,99905.60
2022-11-15T17:52:52.638Z,99901.91
2022-11-15T17:55:24.786Z,99895.56
2022-11-15T17:57:56.903Z,99899.39
2022-11-15T18:00:29.017Z,99903.08
2022-11-15T18:03:01.163Z,99904.52
2022-11-15T18:05:33.280Z,99913.04
2022-11-15T18:08:07.622Z,99915.16
2022-11-15T18:10:42.402Z,99915.84
2022-11-15T18:13:14.672Z,99917.38
2022-11-15T18:16:02.510Z,99913.52
2022-11-15T18:18:36.498Z,99906.27
2022-11-15T18:21:11.941Z,99902.91
2022-11-15T18:23:43.109Z,99903.87
2022-11-15T18:26:16.789Z,99898.42
2022-11-15T18:28:50.440Z,99896.08
2022-11-15T18:31:24.120Z,99891.86
2022-11-15T18:33:57.182Z,99887.23
2022-11-15T18:36:31.732Z,99883.56
2022-11-15T18:39:05.257Z,99877.83
2022-11-15T18:41:37.911Z,99878.09
2022-11-15T18:44:10.130Z,99878.70
2022-11-15T18:46:42.836Z,99879.43
2022-11-15T18:49:16.709Z,99885.85
2022-11-15T18:51:49.964Z,99890.42
2022-11-15T18:54:24.499Z,99896.96
2022-11-15T18:57:00.750Z,99889.54
2022-11-15T18:59:33.303Z,99885.74
2022-11-15T19:02:05.754Z,99887.02
2022-11-15T19:04:37.849Z,99887.46
2022-11-15T19:07:10.384Z,99891.77
2022-11-15T19:09:42.924Z,99887.04
2022-11-15T19:12:15.093Z,99890.84
2022-11-15T19:14:48.026Z,99894.13
2022-11-15T19:17:20.480Z,99899.36
2022-11-15T19:19:53.133Z,99892.94
2022-11-15T19:22:25.248Z,99889.08
2022-11-15T19:24:58.315Z,99887.03
2022-11-15T19:27:34.168Z,99887.00
2022-11-15T19:30:12.813Z,99886.70
2022-11-15T19:32:44.854Z,99882.18
2022-11-15T19:35:17.303Z,99879.52
2022-11-15T19:37:49.409Z,99882.16
2022-11-15T19:40:21.488Z,99887.16
2022-11-15T19:42:53.680Z,99886.16
2022-11-15T19:45:26.053Z,99890.05
2022-11-15T19:47:59.014Z,99888.60
2022-11-15T19:50:31.184Z,99886.64
2022-11-15T19:53:03.351Z,99880.86
2022-11-15T19:55:35.443Z,99881.35
2022-11-15T19:58:07.787Z,99882.36
2022-11-15T20:00:40.284Z,99886.59
2022-11-15T20:03:12.485Z,99887.17
2022-11-15T20:05:45.026Z,99891.50
2022-11-15T20:08:17.232Z,99894.64
2022-11-15T20:10:49.835Z,99892.00
2022-11-15T20:13:21.926Z,99890.48
2022-11-15T20:15:54.556Z,99886.80
2022-11-15T20:18:28.975Z,99888.67
2022-11-15T20:21:01.887Z,99888.63
2022-11-15T20:23:34.213Z,99888.70
2022-11-15T20:26:06.877Z,99891.96
2022-11-15T20:28:40.771Z,99891.67
2022-11-15T20:31:14.041Z,99887.51
2022-11-15T20:33:47.335Z,99885.59
2022-11-15T20:36:19.555Z,99877.02
2022-11-15T20:38:51.978Z,99874.00
2022-11-15T20:41:24.099Z,99875.38
2022-11-15T20:43:56.418Z,99875.90
2022-11-15T20:46:28.613Z,99876.13
2022-11-15T20:49:01.039Z,99870.09
2022-11-15T20:51:33.491Z,99868.47
2022-11-15T20:54:06.322Z,99863.38
2022-11-15T20:56:38.870Z,99859.29
2022-11-15T20:59:11.296Z,99860.86
2022-11-15T21:01:43.567Z,99861.48
2022-11-15T21:04:16.043Z,99859.49
2022-11-15T21:06:49.026Z,99861.55
2022-11-15T21:09:38.989Z,99865.56
2022-11-15T21:12:14.648Z,99869.05
2022-11-15T21:14:49.062Z,99872.98
2022-11-15T21:17:21.235Z,99871.34
2022-11-15T21:19:53.781Z,99864.45
2022-11-15T21:22:26.027Z,99863.80
2022-11-15T21:24:59.118Z,99860.80
2022-11-15T21:27:31.539Z,99858.31
2022-11-15T21:30:04.072Z,99853.72
2022-11-15T21:32:37.260Z,99850.30
2022-11-15T21:35:10.507Z,99845.02
2022-11-15T21:37:42.644Z,99844.81
2022-11-15T21:40:15.592Z,99843.63
2022-11-15T21:42:47.982Z,99837.58
2022-11-15T21:45:20.043Z,99830.97
2022-11-15T21:47:52.162Z,99827.98
2022-11-15T21:50:24.255Z,99827.34
2022-11-15T21:52:56.374Z,99827.73
2022-11-15T21:55:28.463Z,99826.59
2022-11-15T21:58:00.519Z,99824.09
2022-11-15T22:00:50.105Z,99819.20
2022-11-15T22:03:22.531Z,99818.58
2022-11-15T22:05:55.036Z,99816.40
2022-11-15T22:08:27.714Z,99814.88
2022-11-15T22:11:00.215Z,99815.19
2022-11-15T22:13:32.629Z,99820.24
2022-11-15T22:16:05.090Z,99826.33
2022-11-15T22:18:38.343Z,99826.94
2022-11-15T22:21:15.928Z,99828.81
2022-11-15T22:23:48.309Z,99822.33
2022-11-15T22:26:23.747Z,99820.81
2022-11-15T22:28:56.377Z,99819.98
2022-11-15T22:31:28.663Z,99818.79
2022-11-15T22:34:01.049Z,99818.82
2022-11-15T22:36:58.494Z,99817.34
2022-11-15T22:39:29.808Z,99813.13
2022-11-15T22:42:02.128Z,99813.52
2022-11-15T22:44:34.654Z,99811.02
2022-11-15T22:47:10.125Z,99802.36
2022-11-15T22:49:44.704Z,99795.34
2022-11-15T22:52:17.635Z,99790.95
2022-11-15T22:54:50.201Z,99790.75
2022-11-15T22:57:22.433Z,99790.10
2022-11-15T22:59:54.575Z,99791.31
2022-11-15T23:02:28.795Z,99792.15
2022-11-15T23:05:01.112Z,99792.50
2022-11-15T23:07:34.602Z,99787.58
2022-11-15T23:10:28.874Z,99789.34
2022-11-15T23:13:19.168Z,99790.53
2022-11-15T23:16:10.689Z,99794.20
2022-11-15T23:18:43.345Z,99796.98
2022-11-15T23:21:38.578Z,99792.20
2022-11-15T23:24:12.694Z,99787.94
2022-11-15T23:26:46.012Z,99786.83
2022-11-15T23:29:20.487Z,99787.54
2022-11-15T23:32:10.292Z,99779.45
2022-11-15T23:34:44.537Z,99772.70
2022-11-15T23:37:17.750Z,99771.27
2022-11-15T23:39:50.278Z,99770.92
2022-11-15T23:42:22.523Z,99774.19
2022-11-15T23:44:54.667Z,99770.83
2022-11-15T23:47:26.832Z,99762.83
2022-11-15T23:49:58.949Z,99759.50
2022-11-15T23:52:31.196Z,99759.23
2022-11-15T23:55:03.849Z,99754.80
2022-11-15T23:57:35.940Z,99745.94
